sensor_id;sensor_type;location;lat;lon;timestamp;P1;durP1;ratioP1;P2;durP2;ratioP2
19127;SDS011;9696;53.686;10.094;2022-09-17T00:01:44;0.10;;;0.10;;
19127;SDS011;9696;53.686;10.094;2022-09-17T00:04:13;0.20;;;0.20;;
19127;SDS011;9696;53.686;10.094;2022-09-17T00:06:42;0.10;;;0.10;;
19127;SDS011;9696;53.686;10.094;2022-09-17T00:09:12;0.10;;;0.10;;
19127;SDS011;9696;53.686;10.094;2022-09-17T00:11:41;0.00;;;0.00;;
19127;SDS011;9696;53.686;10.094;2022-09-17T00:14:12;0.10;;;0.10;;
19127;SDS011;9696;53.686;10.094;2022-09-17T00:16:42;0.10;;;0.10;;
19127;SDS011;9696;53.686;10.094;2022-09-17T00:19:14;0.10;;;0.10;;
19127;SDS011;9696;53.686;10.094;2022-09-17T00:21:44;0.10;;;0.10;;
19127;SDS011;9696;53.686;10.094;2022-09-17T00:24:15;0.00;;;0.00;;
19127;SDS011;9696;53.686;10.094;2022-09-17T00:26:45;0.10;;;0.10;;
19127;SDS011;9696;53.686;10.094;2022-09-17T00:29:15;0.10;;;0.10;;
19127;SDS011;9696;53.686;10.094;2022-09-17T00:31:44;0.10;;;0.10;;
19127;SDS011;9696;53.686;10.094;2022-09-17T00:34:13;0.00;;;0.00;;
19127;SDS011;9696;53.686;10.094;2022-09-17T00:36:42;0.10;;;0.10;;
19127;SDS011;9696;53.686;10.094;2022-09-17T00:39:11;0.00;;;0.00;;
19127;SDS011;9696;53.686;10.094;2022-09-17T00:41:43;0.00;;;0.00;;
19127;SDS011;9696;53.686;10.094;2022-09-17T00:47:07;0.10;;;0.10;;
19127;SDS011;9696;53.686;10.094;2022-09-17T00:49:40;0.10;;;0.10;;
19127;SDS011;9696;53.686;10.094;2022-09-17T00:52:11;0.00;;;0.00;;
19127;SDS011;9696;53.686;10.094;2022-09-17T00:54:43;0.10;;;0.10;;
19127;SDS011;9696;53.686;10.094;2022-09-17T00:57:20;0.10;;;0.10;;
19127;SDS011;9696;53.686;10.094;2022-09-17T00:59:49;0.10;;;0.10;;
19127;SDS011;9696;53.686;10.094;2022-09-17T01:02:19;0.10;;;0.10;;
19127;SDS011;9696;53.686;10.094;2022-09-17T01:04:48;0.00;;;0.00;;
19127;SDS011;9696;53.686;10.094;2022-09-17T01:07:26;0.10;;;0.10;;
19127;SDS011;9696;53.686;10.094;2022-09-17T01:10:09;0.20;;;0.20;;
19127;SDS011;9696;53.686;10.094;2022-09-17T01:12:52;0.10;;;0.10;;
19127;SDS011;9696;53.686;10.094;2022-09-17T01:15:33;0.10;;;0.10;;
19127;SDS011;9696;53.686;10.094;2022-09-17T01:21:16;0.10;;;0.10;;
19127;SDS011;9696;53.686;10.094;2022-09-17T01:30:39;0.00;;;0.00;;
19127;SDS011;9696;53.686;10.094;2022-09-17T01:33:29;0.10;;;0.10;;
19127;SDS011;9696;53.686;10.094;2022-09-17T01:36:11;0.10;;;0.10;;
19127;SDS011;9696;53.686;10.094;2022-09-17T01:38:53;0.10;;;0.10;;
19127;SDS011;9696;53.686;10.094;2022-09-17T01:41:35;0.10;;;0.10;;
19127;SDS011;9696;53.686;10.094;2022-09-17T01:44:11;0.00;;;0.00;;
19127;SDS011;9696;53.686;10.094;2022-09-17T01:46:48;0.10;;;0.10;;
19127;SDS011;9696;53.686;10.094;2022-09-17T01:49:22;0.00;;;0.00;;
19127;SDS011;9696;53.686;10.094;2022-09-17T01:51:52;0.10;;;0.10;;
19127;SDS011;9696;53.686;10.094;2022-09-17T01:54:23;0.10;;;0.10;;
19127;SDS011;9696;53.686;10.094;2022-09-17T01:56:57;0.10;;;0.10;;
19127;SDS011;9696;53.686;10.094;2022-09-17T01:59:32;0.00;;;0.00;;
19127;SDS011;9696;53.686;10.094;2022-09-17T02:02:07;0.10;;;0.10;;
19127;SDS011;9696;53.686;10.094;2022-09-17T02:04:44;0.10;;;0.10;;
19127;SDS011;9696;53.686;10.094;2022-09-17T02:07:20;0.00;;;0.00;;
19127;SDS011;9696;53.686;10.094;2022-09-17T02:09:52;0.10;;;0.10;;
19127;SDS011;9696;53.686;10.094;2022-09-17T02:12:27;0.10;;;0.10;;
19127;SDS011;9696;53.686;10.094;2022-09-17T02:15:01;0.10;;;0.10;;
19127;SDS011;9696;53.686;10.094;2022-09-17T02:17:36;0.10;;;0.10;;
19127;SDS011;9696;53.686;10.094;2022-09-17T02:20:11;0.10;;;0.10;;
19127;SDS011;9696;53.686;10.094;2022-09-17T02:22:44;0.10;;;0.10;;
19127;SDS011;9696;53.686;10.094;2022-09-17T02:25:19;0.10;;;0.10;;
19127;SDS011;9696;53.686;10.094;2022-09-17T02:27:56;0.10;;;0.10;;
19127;SDS011;9696;53.686;10.094;2022-09-17T02:30:29;0.10;;;0.10;;
19127;SDS011;9696;53.686;10.094;2022-09-17T02:33:00;0.10;;;0.10;;
19127;SDS011;9696;53.686;10.094;2022-09-17T02:35:32;0.07;;;0.07;;
19127;SDS011;9696;53.686;10.094;2022-09-17T02:38:02;0.10;;;0.10;;
19127;SDS011;9696;53.686;10.094;2022-09-17T02:40:33;0.10;;;0.10;;
19127;SDS011;9696;53.686;10.094;2022-09-17T02:43:09;0.10;;;0.10;;
19127;SDS011;9696;53.686;10.094;2022-09-17T02:45:51;0.10;;;0.10;;
19127;SDS011;9696;53.686;10.094;2022-09-17T02:48:37;0.10;;;0.10;;
19127;SDS011;9696;53.686;10.094;2022-09-17T02:51:22;0.10;;;0.10;;
19127;SDS011;9696;53.686;10.094;2022-09-17T02:54:00;0.10;;;0.10;;
19127;SDS011;9696;53.686;10.094;2022-09-17T02:56:40;0.10;;;0.10;;
19127;SDS011;9696;53.686;10.094;2022-09-17T02:59:15;0.10;;;0.10;;
19127;SDS011;9696;53.686;10.094;2022-09-17T03:01:51;0.10;;;0.10;;
19127;SDS011;9696;53.686;10.094;2022-09-17T03:04:27;0.10;;;0.10;;
19127;SDS011;9696;53.686;10.094;2022-09-17T03:06:57;0.10;;;0.10;;
19127;SDS011;9696;53.686;10.094;2022-09-17T03:09:27;0.10;;;0.10;;
19127;SDS011;9696;53.686;10.094;2022-09-17T03:11:57;0.10;;;0.10;;
19127;SDS011;9696;53.686;10.094;2022-09-17T03:14:25;0.10;;;0.10;;
19127;SDS011;9696;53.686;10.094;2022-09-17T03:16:55;0.00;;;0.00;;
19127;SDS011;9696;53.686;10.094;2022-09-17T03:19:24;0.10;;;0.10;;
19127;SDS011;9696;53.686;10.094;2022-09-17T03:21:54;0.40;;;0.40;;
19127;SDS011;9696;53.686;10.094;2022-09-17T03:24:23;0.10;;;0.10;;
19127;SDS011;9696;53.686;10.094;2022-09-17T03:26:52;0.10;;;0.10;;
19127;SDS011;9696;53.686;10.094;2022-09-17T03:29:22;0.00;;;0.00;;
19127;SDS011;9696;53.686;10.094;2022-09-17T03:31:51;0.10;;;0.10;;
19127;SDS011;9696;53.686;10.094;2022-09-17T03:34:20;0.00;;;0.00;;
19127;SDS011;9696;53.686;10.094;2022-09-17T03:36:51;0.10;;;0.10;;
19127;SDS011;9696;53.686;10.094;2022-09-17T03:39:20;0.10;;;0.10;;
19127;SDS011;9696;53.686;10.094;2022-09-17T03:41:49;0.10;;;0.10;;
19127;SDS011;9696;53.686;10.094;2022-09-17T03:44:18;0.10;;;0.10;;
19127;SDS011;9696;53.686;10.094;2022-09-17T03:46:49;0.10;;;0.10;;
19127;SDS011;9696;53.686;10.094;2022-09-17T03:49:18;0.10;;;0.10;;
19127;SDS011;9696;53.686;10.094;2022-09-17T03:51:51;0.10;;;0.10;;
19127;SDS011;9696;53.686;10.094;2022-09-17T03:54:20;0.00;;;0.00;;
19127;SDS011;9696;53.686;10.094;2022-09-17T03:56:49;0.10;;;0.10;;
19127;SDS011;9696;53.686;10.094;2022-09-17T03:59:18;0.10;;;0.10;;
19127;SDS011;9696;53.686;10.094;2022-09-17T04:01:47;0.00;;;0.00;;
19127;SDS011;9696;53.686;10.094;2022-09-17T04:04:16;0.10;;;0.10;;
19127;SDS011;9696;53.686;10.094;2022-09-17T04:06:45;0.10;;;0.10;;
19127;SDS011;9696;53.686;10.094;2022-09-17T04:09:16;0.20;;;0.20;;
19127;SDS011;9696;53.686;10.094;2022-09-17T04:11:45;0.10;;;0.10;;
19127;SDS011;9696;53.686;10.094;2022-09-17T04:14:14;0.07;;;0.07;;
19127;SDS011;9696;53.686;10.094;2022-09-17T04:16:43;0.10;;;0.10;;
19127;SDS011;9696;53.686;10.094;2022-09-17T04:19:12;0.10;;;0.10;;
19127;SDS011;9696;53.686;10.094;2022-09-17T04:21:41;0.10;;;0.10;;
19127;SDS011;9696;53.686;10.094;2022-09-17T04:24:10;0.10;;;0.10;;
19127;SDS011;9696;53.686;10.094;2022-09-17T04:26:40;0.10;;;0.10;;
19127;SDS011;9696;53.686;10.094;2022-09-17T04:29:09;0.10;;;0.10;;
19127;SDS011;9696;53.686;10.094;2022-09-17T04:31:38;0.10;;;0.10;;
19127;SDS011;9696;53.686;10.094;2022-09-17T04:34:07;0.00;;;0.00;;
19127;SDS011;9696;53.686;10.094;2022-09-17T04:36:37;0.10;;;0.10;;
19127;SDS011;9696;53.686;10.094;2022-09-17T04:39:06;0.00;;;0.00;;
19127;SDS011;9696;53.686;10.094;2022-09-17T04:41:35;0.10;;;0.10;;
19127;SDS011;9696;53.686;10.094;2022-09-17T04:44:05;0.00;;;0.00;;
19127;SDS011;9696;53.686;10.094;2022-09-17T04:46:34;0.10;;;0.10;;
19127;SDS011;9696;53.686;10.094;2022-09-17T04:49:03;0.10;;;0.10;;
19127;SDS011;9696;53.686;10.094;2022-09-17T04:51:33;0.10;;;0.10;;
19127;SDS011;9696;53.686;10.094;2022-09-17T04:54:02;0.00;;;0.00;;
19127;SDS011;9696;53.686;10.094;2022-09-17T04:56:31;0.10;;;0.10;;
19127;SDS011;9696;53.686;10.094;2022-09-17T04:59:00;0.10;;;0.10;;
19127;SDS011;9696;53.686;10.094;2022-09-17T05:01:30;0.00;;;0.00;;
19127;SDS011;9696;53.686;10.094;2022-09-17T05:03:59;0.07;;;0.07;;
19127;SDS011;9696;53.686;10.094;2022-09-17T05:06:29;0.10;;;0.10;;
19127;SDS011;9696;53.686;10.094;2022-09-17T05:08:58;0.00;;;0.00;;
19127;SDS011;9696;53.686;10.094;2022-09-17T05:11:27;0.20;;;0.20;;
19127;SDS011;9696;53.686;10.094;2022-09-17T05:13:56;0.10;;;0.10;;
19127;SDS011;9696;53.686;10.094;2022-09-17T05:16:26;0.00;;;0.00;;
19127;SDS011;9696;53.686;10.094;2022-09-17T05:18:56;0.70;;;0.50;;
19127;SDS011;9696;53.686;10.094;2022-09-17T05:21:25;0.03;;;0.03;;
19127;SDS011;9696;53.686;10.094;2022-09-17T05:23:55;0.10;;;0.10;;
19127;SDS011;9696;53.686;10.094;2022-09-17T05:26:24;0.00;;;0.00;;
19127;SDS011;9696;53.686;10.094;2022-09-17T05:28:53;0.00;;;0.00;;
19127;SDS011;9696;53.686;10.094;2022-09-17T05:31:22;0.10;;;0.10;;
19127;SDS011;9696;53.686;10.094;2022-09-17T05:33:51;0.10;;;0.10;;
19127;SDS011;9696;53.686;10.094;2022-09-17T05:36:21;0.10;;;0.10;;
19127;SDS011;9696;53.686;10.094;2022-09-17T05:38:51;0.00;;;0.00;;
19127;SDS011;9696;53.686;10.094;2022-09-17T05:41:19;0.10;;;0.10;;
19127;SDS011;9696;53.686;10.094;2022-09-17T05:43:49;0.00;;;0.00;;
19127;SDS011;9696;53.686;10.094;2022-09-17T05:46:18;0.10;;;0.10;;
19127;SDS011;9696;53.686;10.094;2022-09-17T05:48:47;0.00;;;0.00;;
19127;SDS011;9696;53.686;10.094;2022-09-17T05:51:16;0.00;;;0.00;;
19127;SDS011;9696;53.686;10.094;2022-09-17T05:53:46;0.10;;;0.10;;
19127;SDS011;9696;53.686;10.094;2022-09-17T05:56:15;0.10;;;0.10;;
19127;SDS011;9696;53.686;10.094;2022-09-17T05:58:45;0.10;;;0.10;;
19127;SDS011;9696;53.686;10.094;2022-09-17T06:01:14;0.00;;;0.00;;
19127;SDS011;9696;53.686;10.094;2022-09-17T06:03:43;0.10;;;0.10;;
19127;SDS011;9696;53.686;10.094;2022-09-17T06:06:12;0.10;;;0.10;;
19127;SDS011;9696;53.686;10.094;2022-09-17T06:08:41;0.00;;;0.00;;
19127;SDS011;9696;53.686;10.094;2022-09-17T06:11:11;0.03;;;0.03;;
19127;SDS011;9696;53.686;10.094;2022-09-17T06:13:40;0.10;;;0.10;;
19127;SDS011;9696;53.686;10.094;2022-09-17T06:16:10;0.10;;;0.10;;
19127;SDS011;9696;53.686;10.094;2022-09-17T06:18:39;0.00;;;0.00;;
19127;SDS011;9696;53.686;10.094;2022-09-17T06:21:08;0.10;;;0.10;;
19127;SDS011;9696;53.686;10.094;2022-09-17T06:23:37;0.00;;;0.00;;
19127;SDS011;9696;53.686;10.094;2022-09-17T06:26:06;0.10;;;0.10;;
19127;SDS011;9696;53.686;10.094;2022-09-17T06:28:36;0.10;;;0.10;;
19127;SDS011;9696;53.686;10.094;2022-09-17T06:31:08;0.10;;;0.10;;
19127;SDS011;9696;53.686;10.094;2022-09-17T06:33:39;14.43;;;2.07;;
19127;SDS011;9696;53.686;10.094;2022-09-17T06:36:09;0.10;;;0.10;;
19127;SDS011;9696;53.686;10.094;2022-09-17T06:38:40;0.10;;;0.10;;
19127;SDS011;9696;53.686;10.094;2022-09-17T06:41:10;0.00;;;0.00;;
19127;SDS011;9696;53.686;10.094;2022-09-17T06:43:41;0.10;;;0.10;;
19127;SDS011;9696;53.686;10.094;2022-09-17T06:46:11;0.10;;;0.10;;
19127;SDS011;9696;53.686;10.094;2022-09-17T06:48:40;0.10;;;0.10;;
19127;SDS011;9696;53.686;10.094;2022-09-17T06:51:09;0.00;;;0.00;;
19127;SDS011;9696;53.686;10.094;2022-09-17T06:53:40;0.10;;;0.10;;
19127;SDS011;9696;53.686;10.094;2022-09-17T06:56:09;0.03;;;0.03;;
19127;SDS011;9696;53.686;10.094;2022-09-17T06:58:38;0.03;;;0.03;;
19127;SDS011;9696;53.686;10.094;2022-09-17T07:01:12;9.40;;;1.63;;
19127;SDS011;9696;53.686;10.094;2022-09-17T07:03:43;3.70;;;0.87;;
19127;SDS011;9696;53.686;10.094;2022-09-17T07:06:17;12.33;;;1.27;;
19127;SDS011;9696;53.686;10.094;2022-09-17T07:08:48;6.27;;;0.90;;
19127;SDS011;9696;53.686;10.094;2022-09-17T07:11:18;3.83;;;1.00;;
19127;SDS011;9696;53.686;10.094;2022-09-17T07:13:48;11.03;;;1.17;;
19127;SDS011;9696;53.686;10.094;2022-09-17T07:16:19;8.30;;;0.90;;
19127;SDS011;9696;53.686;10.094;2022-09-17T07:18:50;4.97;;;0.80;;
19127;SDS011;9696;53.686;10.094;2022-09-17T07:21:19;13.50;;;1.17;;
19127;SDS011;9696;53.686;10.094;2022-09-17T07:23:49;6.83;;;0.93;;
19127;SDS011;9696;53.686;10.094;2022-09-17T07:26:19;2.40;;;1.00;;
19127;SDS011;9696;53.686;10.094;2022-09-17T07:28:48;5.13;;;0.90;;
19127;SDS011;9696;53.686;10.094;2022-09-17T07:31:17;3.10;;;0.80;;
19127;SDS011;9696;53.686;10.094;2022-09-17T07:33:47;3.80;;;0.67;;
19127;SDS011;9696;53.686;10.094;2022-09-17T07:36:17;6.20;;;1.00;;
19127;SDS011;9696;53.686;10.094;2022-09-17T07:38:47;7.67;;;0.70;;
19127;SDS011;9696;53.686;10.094;2022-09-17T07:41:17;3.30;;;0.53;;
19127;SDS011;9696;53.686;10.094;2022-09-17T07:43:50;7.03;;;0.80;;
19127;SDS011;9696;53.686;10.094;2022-09-17T07:46:23;6.70;;;0.70;;
19127;SDS011;9696;53.686;10.094;2022-09-17T07:48:54;3.53;;;0.53;;
19127;SDS011;9696;53.686;10.094;2022-09-17T07:51:25;0.53;;;0.20;;
19127;SDS011;9696;53.686;10.094;2022-09-17T07:53:56;2.27;;;0.40;;
19127;SDS011;9696;53.686;10.094;2022-09-17T07:56:28;1.93;;;0.50;;
19127;SDS011;9696;53.686;10.094;2022-09-17T07:59:00;1.00;;;0.30;;
19127;SDS011;9696;53.686;10.094;2022-09-17T08:01:32;1.80;;;0.67;;
19127;SDS011;9696;53.686;10.094;2022-09-17T08:04:03;3.23;;;0.70;;
19127;SDS011;9696;53.686;10.094;2022-09-17T08:06:35;17.90;;;1.23;;
19127;SDS011;9696;53.686;10.094;2022-09-17T08:09:07;2.37;;;0.67;;
19127;SDS011;9696;53.686;10.094;2022-09-17T08:11:39;2.80;;;0.40;;
19127;SDS011;9696;53.686;10.094;2022-09-17T08:14:22;7.23;;;0.80;;
19127;SDS011;9696;53.686;10.094;2022-09-17T08:16:57;4.20;;;0.47;;
19127;SDS011;9696;53.686;10.094;2022-09-17T08:19:29;2.63;;;0.30;;
19127;SDS011;9696;53.686;10.094;2022-09-17T08:22:00;6.63;;;0.60;;
19127;SDS011;9696;53.686;10.094;2022-09-17T08:24:30;5.70;;;0.83;;
19127;SDS011;9696;53.686;10.094;2022-09-17T08:27:01;8.70;;;1.00;;
19127;SDS011;9696;53.686;10.094;2022-09-17T08:29:32;5.45;;;0.80;;
19127;SDS011;9696;53.686;10.094;2022-09-17T08:32:03;2.85;;;0.90;;
19127;SDS011;9696;53.686;10.094;2022-09-17T08:34:34;4.53;;;0.75;;
19127;SDS011;9696;53.686;10.094;2022-09-17T08:37:07;8.90;;;1.00;;
19127;SDS011;9696;53.686;10.094;2022-09-17T08:39:38;3.67;;;0.70;;
19127;SDS011;9696;53.686;10.094;2022-09-17T08:42:10;10.23;;;0.90;;
19127;SDS011;9696;53.686;10.094;2022-09-17T08:44:48;3.42;;;0.70;;
19127;SDS011;9696;53.686;10.094;2022-09-17T08:47:27;4.93;;;0.88;;
19127;SDS011;9696;53.686;10.094;2022-09-17T08:50:05;4.25;;;0.60;;
19127;SDS011;9696;53.686;10.094;2022-09-17T08:55:45;8.85;;;0.63;;
19127;SDS011;9696;53.686;10.094;2022-09-17T08:58:22;3.88;;;0.52;;
19127;SDS011;9696;53.686;10.094;2022-09-17T09:01:08;9.20;;;0.90;;
19127;SDS011;9696;53.686;10.094;2022-09-17T09:04:00;12.70;;;0.98;;
19127;SDS011;9696;53.686;10.094;2022-09-17T09:06:43;25.55;;;1.80;;
19127;SDS011;9696;53.686;10.094;2022-09-17T09:09:20;6.55;;;0.70;;
19127;SDS011;9696;53.686;10.094;2022-09-17T09:11:55;5.68;;;1.10;;
19127;SDS011;9696;53.686;10.094;2022-09-17T09:14:32;2.25;;;0.60;;
19127;SDS011;9696;53.686;10.094;2022-09-17T09:17:08;13.23;;;1.27;;
19127;SDS011;9696;53.686;10.094;2022-09-17T09:19:41;10.57;;;0.87;;
19127;SDS011;9696;53.686;10.094;2022-09-17T09:22:13;2.67;;;0.50;;
19127;SDS011;9696;53.686;10.094;2022-09-17T09:25:01;8.87;;;0.93;;
19127;SDS011;9696;53.686;10.094;2022-09-17T09:27:38;6.47;;;0.80;;
19127;SDS011;9696;53.686;10.094;2022-09-17T09:30:13;8.10;;;0.57;;
19127;SDS011;9696;53.686;10.094;2022-09-17T09:32:55;5.00;;;0.60;;
19127;SDS011;9696;53.686;10.094;2022-09-17T09:35:34;2.83;;;0.43;;
19127;SDS011;9696;53.686;10.094;2022-09-17T09:38:11;2.10;;;1.10;;
19127;SDS011;9696;53.686;10.094;2022-09-17T09:40:47;0.80;;;0.80;;
19127;SDS011;9696;53.686;10.094;2022-09-17T09:43:22;6.63;;;0.87;;
19127;SDS011;9696;53.686;10.094;2022-09-17T09:46:25;1.20;;;0.50;;
19127;SDS011;9696;53.686;10.094;2022-09-17T09:49:13;1.67;;;0.23;;
19127;SDS011;9696;53.686;10.094;2022-09-17T09:51:56;1.07;;;0.23;;
19127;SDS011;9696;53.686;10.094;2022-09-17T09:54:40;1.17;;;0.25;;
19127;SDS011;9696;53.686;10.094;2022-09-17T09:57:21;2.75;;;0.30;;
19127;SDS011;9696;53.686;10.094;2022-09-17T10:00:17;0.50;;;0.20;;
19127;SDS011;9696;53.686;10.094;2022-09-17T10:02:52;1.23;;;0.35;;
19127;SDS011;9696;53.686;10.094;2022-09-17T10:05:27;3.25;;;0.30;;
19127;SDS011;9696;53.686;10.094;2022-09-17T10:07:59;2.17;;;0.32;;
19127;SDS011;9696;53.686;10.094;2022-09-17T10:10:38;2.45;;;0.32;;
19127;SDS011;9696;53.686;10.094;2022-09-17T10:13:22;4.60;;;0.80;;
19127;SDS011;9696;53.686;10.094;2022-09-17T10:15:51;1.92;;;0.32;;
19127;SDS011;9696;53.686;10.094;2022-09-17T10:18:21;1.45;;;0.30;;
19127;SDS011;9696;53.686;10.094;2022-09-17T10:20:52;5.57;;;0.40;;
19127;SDS011;9696;53.686;10.094;2022-09-17T10:23:25;3.47;;;0.70;;
19127;SDS011;9696;53.686;10.094;2022-09-17T10:25:55;1.25;;;0.60;;
19127;SDS011;9696;53.686;10.094;2022-09-17T10:28:28;6.13;;;0.70;;
19127;SDS011;9696;53.686;10.094;2022-09-17T10:31:01;2.28;;;0.50;;
19127;SDS011;9696;53.686;10.094;2022-09-17T10:33:40;2.63;;;0.65;;
19127;SDS011;9696;53.686;10.094;2022-09-17T10:36:34;5.72;;;0.60;;
19127;SDS011;9696;53.686;10.094;2022-09-17T10:41:59;2.78;;;0.40;;
19127;SDS011;9696;53.686;10.094;2022-09-17T10:44:30;4.15;;;0.68;;
19127;SDS011;9696;53.686;10.094;2022-09-17T10:47:04;5.95;;;0.73;;
19127;SDS011;9696;53.686;10.094;2022-09-17T10:49:39;3.85;;;0.60;;
19127;SDS011;9696;53.686;10.094;2022-09-17T10:52:12;3.30;;;0.47;;
19127;SDS011;9696;53.686;10.094;2022-09-17T10:54:55;7.93;;;0.80;;
19127;SDS011;9696;53.686;10.094;2022-09-17T10:57:35;4.85;;;0.55;;
19127;SDS011;9696;53.686;10.094;2022-09-17T11:00:25;9.50;;;1.10;;
19127;SDS011;9696;53.686;10.094;2022-09-17T11:03:05;3.10;;;0.82;;
19127;SDS011;9696;53.686;10.094;2022-09-17T11:05:51;7.20;;;0.68;;
19127;SDS011;9696;53.686;10.094;2022-09-17T11:08:37;4.50;;;1.05;;
19127;SDS011;9696;53.686;10.094;2022-09-17T11:11:21;2.28;;;0.80;;
19127;SDS011;9696;53.686;10.094;2022-09-17T11:14:01;1.67;;;0.40;;
19127;SDS011;9696;53.686;10.094;2022-09-17T11:16:43;3.92;;;0.63;;
19127;SDS011;9696;53.686;10.094;2022-09-17T11:19:25;4.88;;;0.70;;
19127;SDS011;9696;53.686;10.094;2022-09-17T11:22:03;11.55;;;1.10;;
19127;SDS011;9696;53.686;10.094;2022-09-17T11:24:48;2.75;;;0.57;;
19127;SDS011;9696;53.686;10.094;2022-09-17T11:27:42;6.68;;;0.60;;
19127;SDS011;9696;53.686;10.094;2022-09-17T11:30:17;3.25;;;0.57;;
19127;SDS011;9696;53.686;10.094;2022-09-17T11:32:56;33.88;;;2.38;;
19127;SDS011;9696;53.686;10.094;2022-09-17T11:35:45;8.27;;;0.77;;
19127;SDS011;9696;53.686;10.094;2022-09-17T11:38:17;2.78;;;0.35;;
19127;SDS011;9696;53.686;10.094;2022-09-17T11:40:51;4.22;;;0.80;;
19127;SDS011;9696;53.686;10.094;2022-09-17T11:43:31;5.65;;;0.70;;
19127;SDS011;9696;53.686;10.094;2022-09-17T11:46:03;4.90;;;0.70;;
19127;SDS011;9696;53.686;10.094;2022-09-17T11:48:38;2.50;;;0.65;;
19127;SDS011;9696;53.686;10.094;2022-09-17T11:51:16;3.75;;;0.82;;
19127;SDS011;9696;53.686;10.094;2022-09-17T11:53:52;12.15;;;1.05;;
19127;SDS011;9696;53.686;10.094;2022-09-17T11:56:28;3.50;;;0.50;;
19127;SDS011;9696;53.686;10.094;2022-09-17T11:59:02;2.08;;;0.50;;
19127;SDS011;9696;53.686;10.094;2022-09-17T12:01:40;1.98;;;0.30;;
19127;SDS011;9696;53.686;10.094;2022-09-17T12:04:23;4.15;;;0.85;;
19127;SDS011;9696;53.686;10.094;2022-09-17T12:07:14;3.78;;;0.50;;
19127;SDS011;9696;53.686;10.094;2022-09-17T12:09:56;3.72;;;0.77;;
19127;SDS011;9696;53.686;10.094;2022-09-17T12:12:29;5.65;;;0.88;;
19127;SDS011;9696;53.686;10.094;2022-09-17T12:15:19;1.38;;;0.32;;
19127;SDS011;9696;53.686;10.094;2022-09-17T12:17:51;3.40;;;0.60;;
19127;SDS011;9696;53.686;10.094;2022-09-17T12:20:49;3.33;;;0.70;;
19127;SDS011;9696;53.686;10.094;2022-09-17T12:23:25;3.55;;;0.80;;
19127;SDS011;9696;53.686;10.094;2022-09-17T12:26:03;3.83;;;0.50;;
19127;SDS011;9696;53.686;10.094;2022-09-17T12:28:42;2.72;;;0.80;;
19127;SDS011;9696;53.686;10.094;2022-09-17T12:31:22;3.25;;;0.80;;
19127;SDS011;9696;53.686;10.094;2022-09-17T12:33:59;5.10;;;0.98;;
19127;SDS011;9696;53.686;10.094;2022-09-17T12:36:36;7.35;;;1.00;;
19127;SDS011;9696;53.686;10.094;2022-09-17T12:42:26;5.00;;;0.60;;
19127;SDS011;9696;53.686;10.094;2022-09-17T12:48:13;5.53;;;0.98;;
19127;SDS011;9696;53.686;10.094;2022-09-17T12:51:04;7.13;;;1.00;;
19127;SDS011;9696;53.686;10.094;2022-09-17T12:53:51;3.78;;;0.80;;
19127;SDS011;9696;53.686;10.094;2022-09-17T12:56:37;4.40;;;0.88;;
19127;SDS011;9696;53.686;10.094;2022-09-17T12:59:17;6.57;;;1.10;;
19127;SDS011;9696;53.686;10.094;2022-09-17T13:01:51;5.25;;;0.73;;
19127;SDS011;9696;53.686;10.094;2022-09-17T13:04:43;5.50;;;0.85;;
19127;SDS011;9696;53.686;10.094;2022-09-17T13:07:38;5.72;;;0.80;;
19127;SDS011;9696;53.686;10.094;2022-09-17T13:10:24;5.47;;;1.17;;
19127;SDS011;9696;53.686;10.094;2022-09-17T13:13:12;5.72;;;1.10;;
19127;SDS011;9696;53.686;10.094;2022-09-17T13:15:56;5.57;;;0.80;;
19127;SDS011;9696;53.686;10.094;2022-09-17T13:18:42;4.97;;;1.05;;
19127;SDS011;9696;53.686;10.094;2022-09-17T13:21:47;9.55;;;0.80;;
19127;SDS011;9696;53.686;10.094;2022-09-17T13:24:21;4.65;;;1.13;;
19127;SDS011;9696;53.686;10.094;2022-09-17T13:26:56;3.50;;;0.70;;
19127;SDS011;9696;53.686;10.094;2022-09-17T13:38:17;3.60;;;1.15;;
19127;SDS011;9696;53.686;10.094;2022-09-17T13:40:50;1.48;;;0.57;;
19127;SDS011;9696;53.686;10.094;2022-09-17T13:43:20;1.60;;;0.63;;
19127;SDS011;9696;53.686;10.094;2022-09-17T13:46:06;4.82;;;0.75;;
19127;SDS011;9696;53.686;10.094;2022-09-17T13:48:46;4.10;;;0.52;;
19127;SDS011;9696;53.686;10.094;2022-09-17T13:51:42;0.95;;;0.40;;
19127;SDS011;9696;53.686;10.094;2022-09-17T13:54:19;4.88;;;0.65;;
19127;SDS011;9696;53.686;10.094;2022-09-17T13:57:01;3.83;;;1.00;;
19127;SDS011;9696;53.686;10.094;2022-09-17T13:59:35;5.63;;;1.50;;
19127;SDS011;9696;53.686;10.094;2022-09-17T14:05:22;2.87;;;0.70;;
19127;SDS011;9696;53.686;10.094;2022-09-17T14:08:23;6.03;;;0.60;;
19127;SDS011;9696;53.686;10.094;2022-09-17T14:10:59;1.27;;;0.60;;
19127;SDS011;9696;53.686;10.094;2022-09-17T14:13:49;10.73;;;1.53;;
19127;SDS011;9696;53.686;10.094;2022-09-17T14:16:32;4.90;;;1.13;;
19127;SDS011;9696;53.686;10.094;2022-09-17T14:19:19;6.63;;;0.83;;
19127;SDS011;9696;53.686;10.094;2022-09-17T14:21:57;3.33;;;0.50;;
19127;SDS011;9696;53.686;10.094;2022-09-17T14:24:33;3.27;;;0.70;;
19127;SDS011;9696;53.686;10.094;2022-09-17T14:27:16;0.93;;;0.30;;
19127;SDS011;9696;53.686;10.094;2022-09-17T14:30:05;2.70;;;0.70;;
19127;SDS011;9696;53.686;10.094;2022-09-17T14:32:41;2.70;;;0.57;;
19127;SDS011;9696;53.686;10.094;2022-09-17T14:35:16;4.13;;;0.60;;
19127;SDS011;9696;53.686;10.094;2022-09-17T14:37:53;1.83;;;0.70;;
19127;SDS011;9696;53.686;10.094;2022-09-17T14:40:25;3.70;;;1.27;;
19127;SDS011;9696;53.686;10.094;2022-09-17T14:42:56;3.87;;;1.03;;
19127;SDS011;9696;53.686;10.094;2022-09-17T14:45:26;0.60;;;0.30;;
19127;SDS011;9696;53.686;10.094;2022-09-17T14:51:25;5.93;;;0.60;;
19127;SDS011;9696;53.686;10.094;2022-09-17T14:54:06;3.60;;;0.60;;
19127;SDS011;9696;53.686;10.094;2022-09-17T14:56:43;2.57;;;0.50;;
19127;SDS011;9696;53.686;10.094;2022-09-17T14:59:19;6.20;;;0.77;;
19127;SDS011;9696;53.686;10.094;2022-09-17T15:01:52;5.27;;;1.20;;
19127;SDS011;9696;53.686;10.094;2022-09-17T15:04:22;2.40;;;0.70;;
19127;SDS011;9696;53.686;10.094;2022-09-17T15:07:05;2.40;;;0.60;;
19127;SDS011;9696;53.686;10.094;2022-09-17T15:09:34;3.60;;;0.60;;
19127;SDS011;9696;53.686;10.094;2022-09-17T15:12:04;1.80;;;0.57;;
19127;SDS011;9696;53.686;10.094;2022-09-17T15:14:36;3.10;;;0.60;;
19127;SDS011;9696;53.686;10.094;2022-09-17T15:17:06;2.83;;;0.40;;
19127;SDS011;9696;53.686;10.094;2022-09-17T15:19:43;4.63;;;0.60;;
19127;SDS011;9696;53.686;10.094;2022-09-17T15:22:16;2.43;;;0.73;;
19127;SDS011;9696;53.686;10.094;2022-09-17T15:24:51;1.67;;;0.57;;
19127;SDS011;9696;53.686;10.094;2022-09-17T15:27:23;0.97;;;0.60;;
19127;SDS011;9696;53.686;10.094;2022-09-17T15:29:58;4.70;;;0.70;;
19127;SDS011;9696;53.686;10.094;2022-09-17T15:32:29;3.93;;;0.57;;
19127;SDS011;9696;53.686;10.094;2022-09-17T15:37:48;3.87;;;0.90;;
19127;SDS011;9696;53.686;10.094;2022-09-17T15:40:38;1.83;;;0.60;;
19127;SDS011;9696;53.686;10.094;2022-09-17T15:43:13;4.40;;;0.60;;
19127;SDS011;9696;53.686;10.094;2022-09-17T15:45:49;6.60;;;0.80;;
19127;SDS011;9696;53.686;10.094;2022-09-17T15:51:14;5.33;;;1.00;;
19127;SDS011;9696;53.686;10.094;2022-09-17T15:53:51;5.10;;;0.90;;
19127;SDS011;9696;53.686;10.094;2022-09-17T15:56:22;6.23;;;0.70;;
19127;SDS011;9696;53.686;10.094;2022-09-17T15:58:57;3.33;;;0.70;;
19127;SDS011;9696;53.686;10.094;2022-09-17T16:04:23;6.17;;;1.10;;
19127;SDS011;9696;53.686;10.094;2022-09-17T16:06:58;3.83;;;1.17;;
19127;SDS011;9696;53.686;10.094;2022-09-17T16:09:40;1.60;;;0.40;;
19127;SDS011;9696;53.686;10.094;2022-09-17T16:12:14;2.40;;;0.40;;
19127;SDS011;9696;53.686;10.094;2022-09-17T16:14:45;3.67;;;0.57;;
19127;SDS011;9696;53.686;10.094;2022-09-17T16:17:26;2.27;;;0.70;;
19127;SDS011;9696;53.686;10.094;2022-09-17T16:20:06;1.00;;;0.30;;
19127;SDS011;9696;53.686;10.094;2022-09-17T16:22:39;0.80;;;0.40;;